sensor_id;sensor_type;location;lat;lon;timestamp;P1;durP1;ratioP1;P2;durP2;ratioP2
27642;SDS011;15053;48.618;10.024;2022-08-05T00:00:12;9.95;;;6.70;;
27642;SDS011;15053;48.618;10.024;2022-08-05T00:02:41;11.88;;;6.05;;
27642;SDS011;15053;48.618;10.024;2022-08-05T00:05:16;7.93;;;5.15;;
27642;SDS011;15053;48.618;10.024;2022-08-05T00:08:03;6.93;;;5.15;;
27642;SDS011;15053;48.618;10.024;2022-08-05T00:10:44;8.20;;;5.32;;
27642;SDS011;15053;48.618;10.024;2022-08-05T00:13:11;5.40;;;4.85;;
27642;SDS011;15053;48.618;10.024;2022-08-05T00:15:44;8.77;;;5.20;;
27642;SDS011;15053;48.618;10.024;2022-08-05T00:18:25;5.47;;;4.47;;
27642;SDS011;15053;48.618;10.024;2022-08-05T00:20:53;8.18;;;5.13;;
27642;SDS011;15053;48.618;10.024;2022-08-05T00:23:21;11.48;;;5.72;;
27642;SDS011;15053;48.618;10.024;2022-08-05T00:26:09;6.50;;;4.78;;
27642;SDS011;15053;48.618;10.024;2022-08-05T00:28:35;5.57;;;4.95;;
27642;SDS011;15053;48.618;10.024;2022-08-05T00:31:04;6.28;;;5.13;;
27642;SDS011;15053;48.618;10.024;2022-08-05T00:33:33;6.68;;;5.45;;
27642;SDS011;15053;48.618;10.024;2022-08-05T00:36:20;14.85;;;6.88;;
27642;SDS011;15053;48.618;10.024;2022-08-05T00:39:09;11.65;;;6.68;;
27642;SDS011;15053;48.618;10.024;2022-08-05T00:41:39;13.43;;;7.70;;
27642;SDS011;15053;48.618;10.024;2022-08-05T00:44:21;11.18;;;6.68;;
27642;SDS011;15053;48.618;10.024;2022-08-05T00:46:57;9.15;;;6.65;;
27642;SDS011;15053;48.618;10.024;2022-08-05T00:49:31;8.45;;;6.65;;
27642;SDS011;15053;48.618;10.024;2022-08-05T00:52:16;9.45;;;6.43;;
27642;SDS011;15053;48.618;10.024;2022-08-05T00:54:53;7.45;;;6.70;;
27642;SDS011;15053;48.618;10.024;2022-08-05T00:57:21;11.43;;;6.15;;
27642;SDS011;15053;48.618;10.024;2022-08-05T00:59:56;7.07;;;5.57;;
27642;SDS011;15053;48.618;10.024;2022-08-05T01:02:23;9.25;;;5.82;;
27642;SDS011;15053;48.618;10.024;2022-08-05T01:04:50;7.28;;;6.15;;
27642;SDS011;15053;48.618;10.024;2022-08-05T01:07:16;8.52;;;6.03;;
27642;SDS011;15053;48.618;10.024;2022-08-05T01:09:43;9.48;;;6.40;;
27642;SDS011;15053;48.618;10.024;2022-08-05T01:12:20;9.20;;;6.88;;
27642;SDS011;15053;48.618;10.024;2022-08-05T01:23:20;11.73;;;6.10;;
27642;SDS011;15053;48.618;10.024;2022-08-05T01:26:02;9.18;;;6.07;;
27642;SDS011;15053;48.618;10.024;2022-08-05T01:31:50;7.50;;;6.68;;
27642;SDS011;15053;48.618;10.024;2022-08-05T01:36:53;8.30;;;5.40;;
27642;SDS011;15053;48.618;10.024;2022-08-05T01:39:43;7.38;;;5.10;;
27642;SDS011;15053;48.618;10.024;2022-08-05T01:42:15;6.40;;;5.57;;
27642;SDS011;15053;48.618;10.024;2022-08-05T01:47:20;7.05;;;4.70;;
27642;SDS011;15053;48.618;10.024;2022-08-05T01:49:50;10.32;;;4.70;;
27642;SDS011;15053;48.618;10.024;2022-08-05T01:52:27;5.18;;;4.68;;
27642;SDS011;15053;48.618;10.024;2022-08-05T01:54:58;7.55;;;5.03;;
27642;SDS011;15053;48.618;10.024;2022-08-05T01:57:30;7.72;;;4.50;;
27642;SDS011;15053;48.618;10.024;2022-08-05T02:00:19;6.95;;;5.25;;
27642;SDS011;15053;48.618;10.024;2022-08-05T02:02:59;6.13;;;4.00;;
27642;SDS011;15053;48.618;10.024;2022-08-05T02:05:30;4.55;;;4.15;;
27642;SDS011;15053;48.618;10.024;2022-08-05T02:08:02;6.80;;;3.92;;
27642;SDS011;15053;48.618;10.024;2022-08-05T02:10:31;7.25;;;4.32;;
27642;SDS011;15053;48.618;10.024;2022-08-05T02:13:04;6.22;;;4.35;;
27642;SDS011;15053;48.618;10.024;2022-08-05T02:15:54;8.20;;;5.70;;
27642;SDS011;15053;48.618;10.024;2022-08-05T02:18:43;9.10;;;5.95;;
27642;SDS011;15053;48.618;10.024;2022-08-05T02:21:34;9.38;;;7.88;;
27642;SDS011;15053;48.618;10.024;2022-08-05T02:24:10;14.55;;;8.52;;
27642;SDS011;15053;48.618;10.024;2022-08-05T02:27:05;10.70;;;8.95;;
27642;SDS011;15053;48.618;10.024;2022-08-05T02:29:36;9.75;;;8.23;;
27642;SDS011;15053;48.618;10.024;2022-08-05T02:32:25;12.45;;;7.88;;
27642;SDS011;15053;48.618;10.024;2022-08-05T02:35:00;15.95;;;8.02;;
27642;SDS011;15053;48.618;10.024;2022-08-05T02:37:40;10.32;;;8.10;;
27642;SDS011;15053;48.618;10.024;2022-08-05T02:40:13;12.77;;;7.78;;
27642;SDS011;15053;48.618;10.024;2022-08-05T02:42:42;14.75;;;9.15;;
27642;SDS011;15053;48.618;10.024;2022-08-05T02:45:20;15.32;;;9.35;;
27642;SDS011;15053;48.618;10.024;2022-08-05T02:47:51;14.07;;;8.77;;
27642;SDS011;15053;48.618;10.024;2022-08-05T02:50:32;14.35;;;7.88;;
27642;SDS011;15053;48.618;10.024;2022-08-05T02:53:00;9.05;;;6.40;;
27642;SDS011;15053;48.618;10.024;2022-08-05T02:55:28;9.43;;;7.20;;
27642;SDS011;15053;48.618;10.024;2022-08-05T02:58:16;9.65;;;5.28;;
27642;SDS011;15053;48.618;10.024;2022-08-05T03:00:46;8.55;;;5.53;;
27642;SDS011;15053;48.618;10.024;2022-08-05T03:03:15;8.95;;;5.20;;
27642;SDS011;15053;48.618;10.024;2022-08-05T03:05:48;5.22;;;4.72;;
27642;SDS011;15053;48.618;10.024;2022-08-05T03:08:39;4.90;;;4.40;;
27642;SDS011;15053;48.618;10.024;2022-08-05T03:11:17;8.35;;;4.32;;
27642;SDS011;15053;48.618;10.024;2022-08-05T03:14:09;5.40;;;4.30;;
27642;SDS011;15053;48.618;10.024;2022-08-05T03:16:39;6.33;;;4.03;;
27642;SDS011;15053;48.618;10.024;2022-08-05T03:19:05;7.25;;;4.90;;
27642;SDS011;15053;48.618;10.024;2022-08-05T03:21:42;9.10;;;3.90;;
27642;SDS011;15053;48.618;10.024;2022-08-05T03:24:15;7.90;;;4.80;;
27642;SDS011;15053;48.618;10.024;2022-08-05T03:26:55;6.05;;;4.50;;
27642;SDS011;15053;48.618;10.024;2022-08-05T03:29:23;5.97;;;4.60;;
27642;SDS011;15053;48.618;10.024;2022-08-05T03:32:10;6.07;;;5.00;;
27642;SDS011;15053;48.618;10.024;2022-08-05T03:34:39;8.68;;;5.63;;
27642;SDS011;15053;48.618;10.024;2022-08-05T03:37:16;8.20;;;4.32;;
27642;SDS011;15053;48.618;10.024;2022-08-05T03:40:01;7.45;;;4.85;;
27642;SDS011;15053;48.618;10.024;2022-08-05T03:42:37;6.75;;;5.28;;
27642;SDS011;15053;48.618;10.024;2022-08-05T03:45:17;6.53;;;5.23;;
27642;SDS011;15053;48.618;10.024;2022-08-05T03:47:48;11.15;;;5.03;;
27642;SDS011;15053;48.618;10.024;2022-08-05T03:50:16;10.48;;;4.45;;
27642;SDS011;15053;48.618;10.024;2022-08-05T03:52:51;8.95;;;5.40;;
27642;SDS011;15053;48.618;10.024;2022-08-05T03:56:38;9.02;;;5.40;;
27642;SDS011;15053;48.618;10.024;2022-08-05T03:59:00;10.68;;;6.10;;
27642;SDS011;15053;48.618;10.024;2022-08-05T04:01:31;10.32;;;5.43;;
27642;SDS011;15053;48.618;10.024;2022-08-05T04:04:02;8.25;;;5.22;;
27642;SDS011;15053;48.618;10.024;2022-08-05T04:06:36;8.20;;;4.70;;
27642;SDS011;15053;48.618;10.024;2022-08-05T04:09:13;8.02;;;5.22;;
27642;SDS011;15053;48.618;10.024;2022-08-05T04:11:45;7.97;;;4.80;;
27642;SDS011;15053;48.618;10.024;2022-08-05T04:14:18;7.45;;;4.55;;
27642;SDS011;15053;48.618;10.024;2022-08-05T04:16:56;4.80;;;4.07;;
27642;SDS011;15053;48.618;10.024;2022-08-05T04:19:24;6.40;;;4.38;;
27642;SDS011;15053;48.618;10.024;2022-08-05T04:21:50;5.90;;;4.28;;
27642;SDS011;15053;48.618;10.024;2022-08-05T04:24:41;8.23;;;4.68;;
27642;SDS011;15053;48.618;10.024;2022-08-05T04:27:18;6.50;;;4.45;;
27642;SDS011;15053;48.618;10.024;2022-08-05T04:30:05;5.50;;;4.00;;
27642;SDS011;15053;48.618;10.024;2022-08-05T04:32:34;7.93;;;5.05;;
27642;SDS011;15053;48.618;10.024;2022-08-05T04:35:03;8.32;;;4.20;;
27642;SDS011;15053;48.618;10.024;2022-08-05T04:37:31;6.32;;;4.70;;
27642;SDS011;15053;48.618;10.024;2022-08-05T04:40:18;11.93;;;4.55;;
27642;SDS011;15053;48.618;10.024;2022-08-05T04:42:45;7.78;;;4.30;;
27642;SDS011;15053;48.618;10.024;2022-08-05T04:45:11;7.53;;;4.20;;
27642;SDS011;15053;48.618;10.024;2022-08-05T04:48:03;13.13;;;4.65;;
27642;SDS011;15053;48.618;10.024;2022-08-05T04:50:47;6.45;;;4.15;;
27642;SDS011;15053;48.618;10.024;2022-08-05T04:53:34;6.07;;;4.23;;
27642;SDS011;15053;48.618;10.024;2022-08-05T04:56:01;5.97;;;4.03;;
27642;SDS011;15053;48.618;10.024;2022-08-05T04:58:48;8.38;;;4.72;;
27642;SDS011;15053;48.618;10.024;2022-08-05T05:01:16;9.30;;;4.63;;
27642;SDS011;15053;48.618;10.024;2022-08-05T05:04:03;8.00;;;4.45;;
27642;SDS011;15053;48.618;10.024;2022-08-05T05:06:30;6.85;;;4.40;;
27642;SDS011;15053;48.618;10.024;2022-08-05T05:09:10;7.27;;;4.67;;
27642;SDS011;15053;48.618;10.024;2022-08-05T05:11:42;6.38;;;4.28;;
27642;SDS011;15053;48.618;10.024;2022-08-05T05:14:21;6.50;;;4.15;;
27642;SDS011;15053;48.618;10.024;2022-08-05T05:16:57;5.32;;;4.55;;
27642;SDS011;15053;48.618;10.024;2022-08-05T05:19:28;7.90;;;4.45;;
27642;SDS011;15053;48.618;10.024;2022-08-05T05:22:10;7.38;;;4.32;;
27642;SDS011;15053;48.618;10.024;2022-08-05T05:24:51;6.82;;;4.30;;
27642;SDS011;15053;48.618;10.024;2022-08-05T05:27:26;9.60;;;4.70;;
27642;SDS011;15053;48.618;10.024;2022-08-05T05:30:12;7.63;;;4.28;;
27642;SDS011;15053;48.618;10.024;2022-08-05T05:32:41;8.82;;;3.83;;
27642;SDS011;15053;48.618;10.024;2022-08-05T05:35:07;6.75;;;4.28;;
27642;SDS011;15053;48.618;10.024;2022-08-05T05:37:53;11.15;;;4.40;;
27642;SDS011;15053;48.618;10.024;2022-08-05T05:40:26;9.57;;;4.20;;
27642;SDS011;15053;48.618;10.024;2022-08-05T05:42:55;5.80;;;4.35;;
27642;SDS011;15053;48.618;10.024;2022-08-05T05:45:22;6.30;;;4.18;;
27642;SDS011;15053;48.618;10.024;2022-08-05T05:47:51;6.55;;;4.32;;
27642;SDS011;15053;48.618;10.024;2022-08-05T05:50:33;7.43;;;4.25;;
27642;SDS011;15053;48.618;10.024;2022-08-05T05:53:10;7.53;;;4.90;;
27642;SDS011;15053;48.618;10.024;2022-08-05T05:55:48;12.75;;;4.63;;
27642;SDS011;15053;48.618;10.024;2022-08-05T05:58:26;16.77;;;4.60;;
27642;SDS011;15053;48.618;10.024;2022-08-05T06:01:00;7.97;;;4.70;;
27642;SDS011;15053;48.618;10.024;2022-08-05T06:03:39;20.38;;;4.55;;
27642;SDS011;15053;48.618;10.024;2022-08-05T06:06:26;6.53;;;3.90;;
27642;SDS011;15053;48.618;10.024;2022-08-05T06:08:56;11.33;;;4.87;;
27642;SDS011;15053;48.618;10.024;2022-08-05T06:11:23;14.15;;;4.47;;
27642;SDS011;15053;48.618;10.024;2022-08-05T06:13:51;9.27;;;4.22;;
27642;SDS011;15053;48.618;10.024;2022-08-05T06:16:20;11.07;;;4.88;;
27642;SDS011;15053;48.618;10.024;2022-08-05T06:18:57;18.83;;;4.60;;
27642;SDS011;15053;48.618;10.024;2022-08-05T06:21:27;9.70;;;4.40;;
27642;SDS011;15053;48.618;10.024;2022-08-05T06:24:06;8.48;;;4.40;;
27642;SDS011;15053;48.618;10.024;2022-08-05T06:26:41;12.50;;;5.60;;
27642;SDS011;15053;48.618;10.024;2022-08-05T06:29:18;12.65;;;4.65;;
27642;SDS011;15053;48.618;10.024;2022-08-05T06:32:07;7.40;;;4.68;;
27642;SDS011;15053;48.618;10.024;2022-08-05T06:34:51;8.48;;;4.43;;
27642;SDS011;15053;48.618;10.024;2022-08-05T06:37:23;9.18;;;4.65;;
27642;SDS011;15053;48.618;10.024;2022-08-05T06:40:12;9.85;;;4.50;;
27642;SDS011;15053;48.618;10.024;2022-08-05T06:42:47;9.43;;;4.63;;
27642;SDS011;15053;48.618;10.024;2022-08-05T06:45:18;9.27;;;4.50;;
27642;SDS011;15053;48.618;10.024;2022-08-05T06:48:05;8.35;;;4.68;;
27642;SDS011;15053;48.618;10.024;2022-08-05T06:50:52;7.30;;;4.60;;
27642;SDS011;15053;48.618;10.024;2022-08-05T06:53:19;9.35;;;4.72;;
27642;SDS011;15053;48.618;10.024;2022-08-05T06:55:54;6.25;;;4.55;;
27642;SDS011;15053;48.618;10.024;2022-08-05T06:58:25;10.00;;;4.43;;
27642;SDS011;15053;48.618;10.024;2022-08-05T07:01:02;6.38;;;4.90;;
27642;SDS011;15053;48.618;10.024;2022-08-05T07:03:31;8.45;;;4.65;;
27642;SDS011;15053;48.618;10.024;2022-08-05T07:06:02;8.63;;;4.80;;
27642;SDS011;15053;48.618;10.024;2022-08-05T07:08:39;6.70;;;4.45;;
27642;SDS011;15053;48.618;10.024;2022-08-05T07:11:07;8.90;;;4.63;;
27642;SDS011;15053;48.618;10.024;2022-08-05T07:13:41;8.73;;;4.40;;
27642;SDS011;15053;48.618;10.024;2022-08-05T07:16:27;13.32;;;4.38;;
27642;SDS011;15053;48.618;10.024;2022-08-05T07:19:33;10.10;;;3.80;;
27642;SDS011;15053;48.618;10.024;2022-08-05T07:22:20;6.93;;;4.28;;
27642;SDS011;15053;48.618;10.024;2022-08-05T07:25:01;8.30;;;3.60;;
27642;SDS011;15053;48.618;10.024;2022-08-05T07:27:48;8.38;;;3.53;;
27642;SDS011;15053;48.618;10.024;2022-08-05T07:30:31;7.35;;;3.90;;
27642;SDS011;15053;48.618;10.024;2022-08-05T07:33:04;9.50;;;3.72;;
27642;SDS011;15053;48.618;10.024;2022-08-05T07:35:36;8.20;;;4.13;;
27642;SDS011;15053;48.618;10.024;2022-08-05T07:38:23;7.55;;;3.85;;
27642;SDS011;15053;48.618;10.024;2022-08-05T07:41:00;5.13;;;3.50;;
27642;SDS011;15053;48.618;10.024;2022-08-05T07:43:47;8.15;;;3.72;;
27642;SDS011;15053;48.618;10.024;2022-08-05T07:46:15;6.78;;;3.45;;
27642;SDS011;15053;48.618;10.024;2022-08-05T07:48:51;5.13;;;3.88;;
27642;SDS011;15053;48.618;10.024;2022-08-05T07:51:30;6.10;;;3.60;;
27642;SDS011;15053;48.618;10.024;2022-08-05T07:54:06;6.80;;;4.28;;
27642;SDS011;15053;48.618;10.024;2022-08-05T07:56:36;6.05;;;3.50;;
27642;SDS011;15053;48.618;10.024;2022-08-05T07:59:23;5.70;;;3.25;;
27642;SDS011;15053;48.618;10.024;2022-08-05T08:02:06;4.88;;;3.47;;
27642;SDS011;15053;48.618;10.024;2022-08-05T08:04:45;6.47;;;3.35;;
27642;SDS011;15053;48.618;10.024;2022-08-05T08:07:14;6.70;;;3.83;;
27642;SDS011;15053;48.618;10.024;2022-08-05T08:09:43;6.97;;;3.78;;
27642;SDS011;15053;48.618;10.024;2022-08-05T08:12:10;5.00;;;3.38;;
27642;SDS011;15053;48.618;10.024;2022-08-05T08:14:59;5.88;;;3.40;;
27642;SDS011;15053;48.618;10.024;2022-08-05T08:17:28;4.90;;;2.70;;
27642;SDS011;15053;48.618;10.024;2022-08-05T08:19:55;6.13;;;2.83;;
27642;SDS011;15053;48.618;10.024;2022-08-05T08:22:42;7.25;;;3.47;;
27642;SDS011;15053;48.618;10.024;2022-08-05T08:25:09;3.92;;;2.30;;
27642;SDS011;15053;48.618;10.024;2022-08-05T08:27:43;5.35;;;2.70;;
27642;SDS011;15053;48.618;10.024;2022-08-05T08:30:13;5.53;;;3.17;;
27642;SDS011;15053;48.618;10.024;2022-08-05T08:33:05;9.63;;;3.05;;
27642;SDS011;15053;48.618;10.024;2022-08-05T08:35:34;7.38;;;2.80;;
27642;SDS011;15053;48.618;10.024;2022-08-05T08:38:07;3.72;;;2.35;;
27642;SDS011;15053;48.618;10.024;2022-08-05T08:40:41;3.75;;;2.45;;
27642;SDS011;15053;48.618;10.024;2022-08-05T08:43:17;4.30;;;2.55;;
27642;SDS011;15053;48.618;10.024;2022-08-05T08:46:04;4.72;;;2.90;;
27642;SDS011;15053;48.618;10.024;2022-08-05T08:51:22;4.00;;;2.55;;
27642;SDS011;15053;48.618;10.024;2022-08-05T08:54:09;3.25;;;2.28;;
27642;SDS011;15053;48.618;10.024;2022-08-05T08:56:39;4.47;;;2.70;;
27642;SDS011;15053;48.618;10.024;2022-08-05T08:59:16;4.40;;;2.67;;
27642;SDS011;15053;48.618;10.024;2022-08-05T09:01:46;2.97;;;2.58;;
27642;SDS011;15053;48.618;10.024;2022-08-05T09:04:26;3.80;;;2.42;;
27642;SDS011;15053;48.618;10.024;2022-08-05T09:06:56;5.65;;;2.53;;
27642;SDS011;15053;48.618;10.024;2022-08-05T09:09:23;3.85;;;2.38;;
27642;SDS011;15053;48.618;10.024;2022-08-05T09:11:57;3.05;;;2.80;;
27642;SDS011;15053;48.618;10.024;2022-08-05T09:14:40;4.43;;;2.05;;
27642;SDS011;15053;48.618;10.024;2022-08-05T09:17:27;3.15;;;2.47;;
27642;SDS011;15053;48.618;10.024;2022-08-05T09:20:11;2.78;;;2.15;;
27642;SDS011;15053;48.618;10.024;2022-08-05T09:23:14;2.83;;;2.10;;
27642;SDS011;15053;48.618;10.024;2022-08-05T09:25:48;3.45;;;2.00;;
27642;SDS011;15053;48.618;10.024;2022-08-05T09:28:29;2.53;;;2.22;;
27642;SDS011;15053;48.618;10.024;2022-08-05T09:31:00;3.25;;;1.95;;
27642;SDS011;15053;48.618;10.024;2022-08-05T09:33:53;3.78;;;2.42;;
27642;SDS011;15053;48.618;10.024;2022-08-05T09:36:21;2.50;;;2.13;;
27642;SDS011;15053;48.618;10.024;2022-08-05T09:42:00;2.55;;;2.35;;
27642;SDS011;15053;48.618;10.024;2022-08-05T09:44:48;4.30;;;2.60;;
27642;SDS011;15053;48.618;10.024;2022-08-05T09:47:20;2.92;;;2.08;;
27642;SDS011;15053;48.618;10.024;2022-08-05T09:49:49;3.05;;;2.33;;
27642;SDS011;15053;48.618;10.024;2022-08-05T09:52:33;5.80;;;2.47;;
27642;SDS011;15053;48.618;10.024;2022-08-05T09:57:50;2.75;;;1.80;;
27642;SDS011;15053;48.618;10.024;2022-08-05T10:00:23;2.47;;;2.28;;
27642;SDS011;15053;48.618;10.024;2022-08-05T10:02:52;3.20;;;2.10;;
27642;SDS011;15053;48.618;10.024;2022-08-05T10:05:23;3.10;;;2.80;;
27642;SDS011;15053;48.618;10.024;2022-08-05T10:13:26;3.42;;;1.95;;
27642;SDS011;15053;48.618;10.024;2022-08-05T10:16:32;3.03;;;2.35;;
27642;SDS011;15053;48.618;10.024;2022-08-05T10:19:07;4.60;;;1.90;;
27642;SDS011;15053;48.618;10.024;2022-08-05T10:21:37;3.45;;;2.30;;
27642;SDS011;15053;48.618;10.024;2022-08-05T10:24:07;4.00;;;2.45;;
27642;SDS011;15053;48.618;10.024;2022-08-05T10:26:42;2.97;;;2.35;;
27642;SDS011;15053;48.618;10.024;2022-08-05T10:29:18;4.50;;;2.28;;
27642;SDS011;15053;48.618;10.024;2022-08-05T10:32:07;2.67;;;2.22;;
27642;SDS011;15053;48.618;10.024;2022-08-05T10:34:54;3.85;;;2.22;;
27642;SDS011;15053;48.618;10.024;2022-08-05T10:37:27;6.95;;;2.63;;
27642;SDS011;15053;48.618;10.024;2022-08-05T10:40:32;4.90;;;2.60;;
27642;SDS011;15053;48.618;10.024;2022-08-05T10:46:17;3.33;;;2.40;;
27642;SDS011;15053;48.618;10.024;2022-08-05T10:48:53;3.80;;;2.30;;
27642;SDS011;15053;48.618;10.024;2022-08-05T10:51:28;3.70;;;1.98;;
27642;SDS011;15053;48.618;10.024;2022-08-05T10:54:44;13.38;;;2.40;;
27642;SDS011;15053;48.618;10.024;2022-08-05T10:57:27;4.22;;;2.35;;
27642;SDS011;15053;48.618;10.024;2022-08-05T11:00:11;3.83;;;2.20;;
27642;SDS011;15053;48.618;10.024;2022-08-05T11:06:24;4.93;;;2.30;;
27642;SDS011;15053;48.618;10.024;2022-08-05T11:11:42;2.42;;;2.22;;
27642;SDS011;15053;48.618;10.024;2022-08-05T11:14:33;3.33;;;2.05;;
27642;SDS011;15053;48.618;10.024;2022-08-05T11:17:27;4.03;;;2.55;;
27642;SDS011;15053;48.618;10.024;2022-08-05T11:28:58;4.47;;;2.20;;
27642;SDS011;15053;48.618;10.024;2022-08-05T11:31:40;4.60;;;1.95;;
27642;SDS011;15053;48.618;10.024;2022-08-05T11:40:57;4.78;;;2.40;;
27642;SDS011;15053;48.618;10.024;2022-08-05T11:46:36;2.33;;;2.13;;
27642;SDS011;15053;48.618;10.024;2022-08-05T11:49:27;2.20;;;2.00;;
27642;SDS011;15053;48.618;10.024;2022-08-05T11:51:59;4.60;;;2.03;;
27642;SDS011;15053;48.618;10.024;2022-08-05T11:54:34;2.15;;;1.90;;
27642;SDS011;15053;48.618;10.024;2022-08-05T11:57:03;4.53;;;2.30;;
27642;SDS011;15053;48.618;10.024;2022-08-05T11:59:49;2.33;;;1.85;;
27642;SDS011;15053;48.618;10.024;2022-08-05T12:02:16;3.58;;;2.35;;
27642;SDS011;15053;48.618;10.024;2022-08-05T12:07:25;3.17;;;2.20;;
27642;SDS011;15053;48.618;10.024;2022-08-05T12:10:18;2.10;;;1.95;;
27642;SDS011;15053;48.618;10.024;2022-08-05T12:12:46;2.38;;;2.17;;
27642;SDS011;15053;48.618;10.024;2022-08-05T12:15:25;2.45;;;2.10;;
27642;SDS011;15053;48.618;10.024;2022-08-05T12:18:03;3.67;;;2.05;;
27642;SDS011;15053;48.618;10.024;2022-08-05T12:20:37;3.58;;;2.17;;
27642;SDS011;15053;48.618;10.024;2022-08-05T12:23:10;4.80;;;2.40;;
27642;SDS011;15053;48.618;10.024;2022-08-05T12:28:37;3.72;;;2.03;;
27642;SDS011;15053;48.618;10.024;2022-08-05T12:31:04;2.80;;;2.20;;
27642;SDS011;15053;48.618;10.024;2022-08-05T12:33:31;2.58;;;2.05;;
27642;SDS011;15053;48.618;10.024;2022-08-05T12:36:02;2.30;;;2.10;;
27642;SDS011;15053;48.618;10.024;2022-08-05T12:38:37;4.32;;;2.20;;
27642;SDS011;15053;48.618;10.024;2022-08-05T12:41:07;4.60;;;2.30;;
27642;SDS011;15053;48.618;10.024;2022-08-05T12:43:55;3.80;;;2.20;;
27642;SDS011;15053;48.618;10.024;2022-08-05T12:46:30;2.22;;;2.03;;
27642;SDS011;15053;48.618;10.024;2022-08-05T12:49:11;2.55;;;2.20;;
27642;SDS011;15053;48.618;10.024;2022-08-05T12:51:51;3.08;;;1.95;;
27642;SDS011;15053;48.618;10.024;2022-08-05T12:54:41;4.57;;;1.90;;
27642;SDS011;15053;48.618;10.024;2022-08-05T12:57:10;2.33;;;2.13;;
27642;SDS011;15053;48.618;10.024;2022-08-05T12:59:48;2.67;;;2.25;;
27642;SDS011;15053;48.618;10.024;2022-08-05T13:02:36;3.97;;;1.98;;
27642;SDS011;15053;48.618;10.024;2022-08-05T13:05:06;2.70;;;2.50;;
27642;SDS011;15053;48.618;10.024;2022-08-05T13:07:38;3.20;;;2.20;;
27642;SDS011;15053;48.618;10.024;2022-08-05T13:10:25;6.32;;;2.47;;
27642;SDS011;15053;48.618;10.024;2022-08-05T13:12:54;6.15;;;2.78;;
27642;SDS011;15053;48.618;10.024;2022-08-05T13:15:27;3.53;;;2.40;;
27642;SDS011;15053;48.618;10.024;2022-08-05T13:18:16;3.45;;;2.50;;
27642;SDS011;15053;48.618;10.024;2022-08-05T13:20:45;3.40;;;2.20;;
27642;SDS011;15053;48.618;10.024;2022-08-05T13:23:15;2.70;;;2.40;;
27642;SDS011;15053;48.618;10.024;2022-08-05T13:25:48;3.88;;;2.55;;
27642;SDS011;15053;48.618;10.024;2022-08-05T13:28:25;2.10;;;2.00;;
27642;SDS011;15053;48.618;10.024;2022-08-05T13:30:52;6.75;;;2.60;;
27642;SDS011;15053;48.618;10.024;2022-08-05T13:33:19;3.33;;;2.63;;
27642;SDS011;15053;48.618;10.024;2022-08-05T13:36:07;4.30;;;2.35;;
27642;SDS011;15053;48.618;10.024;2022-08-05T13:38:35;2.40;;;2.20;;
27642;SDS011;15053;48.618;10.024;2022-08-05T13:41:08;4.78;;;2.55;;
27642;SDS011;15053;48.618;10.024;2022-08-05T13:43:36;4.03;;;2.42;;
27642;SDS011;15053;48.618;10.024;2022-08-05T13:46:11;3.00;;;2.53;;
27642;SDS011;15053;48.618;10.024;2022-08-05T13:48:38;2.70;;;2.50;;
27642;SDS011;15053;48.618;10.024;2022-08-05T13:51:25;3.58;;;2.47;;
27642;SDS011;15053;48.618;10.024;2022-08-05T13:54:02;3.80;;;2.70;;
27642;SDS011;15053;48.618;10.024;2022-08-05T13:56:38;5.80;;;4.18;;
27642;SDS011;15053;48.618;10.024;2022-08-05T13:59:15;4.35;;;3.03;;
27642;SDS011;15053;48.618;10.024;2022-08-05T14:01:46;6.20;;;4.53;;
27642;SDS011;15053;48.618;10.024;2022-08-05T14:04:28;4.75;;;3.63;;
27642;SDS011;15053;48.618;10.024;2022-08-05T14:07:17;5.60;;;4.35;;
27642;SDS011;15053;48.618;10.024;2022-08-05T14:10:10;4.22;;;3.72;;
27642;SDS011;15053;48.618;10.024;2022-08-05T14:12:37;3.67;;;3.38;;
27642;SDS011;15053;48.618;10.024;2022-08-05T14:15:04;11.18;;;8.82;;
27642;SDS011;15053;48.618;10.024;2022-08-05T14:17:51;9.73;;;8.23;;
27642;SDS011;15053;48.618;10.024;2022-08-05T14:20:24;4.70;;;2.63;;
27642;SDS011;15053;48.618;10.024;2022-08-05T14:22:52;7.40;;;2.55;;
27642;SDS011;15053;48.618;10.024;2022-08-05T14:25:21;3.00;;;2.67;;
27642;SDS011;15053;48.618;10.024;2022-08-05T14:27:53;4.43;;;2.38;;
27642;SDS011;15053;48.618;10.024;2022-08-05T14:30:20;6.50;;;3.35;;
27642;SDS011;15053;48.618;10.024;2022-08-05T14:32:47;4.45;;;3.50;;
27642;SDS011;15053;48.618;10.024;2022-08-05T14:35:16;4.00;;;3.42;;
27642;SDS011;15053;48.618;10.024;2022-08-05T14:37:48;3.53;;;2.85;;
27642;SDS011;15053;48.618;10.024;2022-08-05T14:40:20;4.55;;;3.45;;
27642;SDS011;15053;48.618;10.024;2022-08-05T14:42:50;6.17;;;3.20;;
27642;SDS011;15053;48.618;10.024;2022-08-05T14:45:17;4.10;;;3.20;;
27642;SDS011;15053;48.618;10.024;2022-08-05T14:47:44;4.53;;;3.50;;
27642;SDS011;15053;48.618;10.024;2022-08-05T14:50:31;4.03;;;2.97;;
27642;SDS011;15053;48.618;10.024;2022-08-05T14:53:05;3.58;;;3.13;;
27642;SDS011;15053;48.618;10.024;2022-08-05T14:55:32;6.43;;;4.22;;
27642;SDS011;15053;48.618;10.024;2022-08-05T14:58:05;5.50;;;4.95;;
27642;SDS011;15053;48.618;10.024;2022-08-05T15:00:39;4.43;;;3.00;;
27642;SDS011;15053;48.618;10.024;2022-08-05T15:03:26;5.95;;;3.35;;
27642;SDS011;15053;48.618;10.024;2022-08-05T15:06:04;5.95;;;3.55;;
27642;SDS011;15053;48.618;10.024;2022-08-05T15:08:40;7.50;;;3.13;;
27642;SDS011;15053;48.618;10.024;2022-08-05T15:11:27;6.53;;;3.03;;
27642;SDS011;15053;48.618;10.024;2022-08-05T15:14:14;5.63;;;5.00;;
27642;SDS011;15053;48.618;10.024;2022-08-05T15:16:59;9.20;;;5.38;;
27642;SDS011;15053;48.618;10.024;2022-08-05T15:19:26;11.07;;;8.57;;
27642;SDS011;15053;48.618;10.024;2022-08-05T15:21:53;6.43;;;5.53;;
27642;SDS011;15053;48.618;10.024;2022-08-05T15:24:25;8.95;;;7.55;;
27642;SDS011;15053;48.618;10.024;2022-08-05T15:26:52;5.20;;;4.45;;
27642;SDS011;15053;48.618;10.024;2022-08-05T15:29:21;5.68;;;3.17;;
27642;SDS011;15053;48.618;10.024;2022-08-05T15:31:48;7.57;;;4.45;;
27642;SDS011;15053;48.618;10.024;2022-08-05T15:34:18;5.45;;;4.93;;
27642;SDS011;15053;48.618;10.024;2022-08-05T15:36:58;7.50;;;3.30;;
27642;SDS011;15053;48.618;10.024;2022-08-05T15:39:32;4.00;;;3.10;;
27642;SDS011;15053;48.618;10.024;2022-08-05T15:42:19;7.43;;;4.63;;
27642;SDS011;15053;48.618;10.024;2022-08-05T15:45:06;10.15;;;8.25;;
27642;SDS011;15053;48.618;10.024;2022-08-05T15:47:39;4.25;;;3.50;;
27642;SDS011;15053;48.618;10.024;2022-08-05T15:50:08;2.97;;;2.58;;
27642;SDS011;15053;48.618;10.024;2022-08-05T15:52:41;6.07;;;2.95;;
27642;SDS011;15053;48.618;10.024;2022-08-05T15:55:20;7.90;;;4.35;;
27642;SDS011;15053;48.618;10.024;2022-08-05T15:58:08;9.50;;;7.68;;
27642;SDS011;15053;48.618;10.024;2022-08-05T16:00:42;6.32;;;5.25;;
27642;SDS011;15053;48.618;10.024;2022-08-05T16:03:28;6.30;;;5.05;;
27642;SDS011;15053;48.618;10.024;2022-08-05T16:05:58;6.85;;;4.18;;
27642;SDS011;15053;48.618;10.024;2022-08-05T16:08:25;10.65;;;6.13;;
27642;SDS011;15053;48.618;10.024;2022-08-05T16:10:56;7.20;;;4.38;;
27642;SDS011;15053;48.618;10.024;2022-08-05T16:13:24;4.60;;;3.85;;
27642;SDS011;15053;48.618;10.024;2022-08-05T16:16:00;3.55;;;3.25;;
27642;SDS011;15053;48.618;10.024;2022-08-05T16:18:30;4.57;;;2.97;;
27642;SDS011;15053;48.618;10.024;2022-08-05T16:20:58;4.72;;;2.88;;
27642;SDS011;15053;48.618;10.024;2022-08-05T16:23:30;3.03;;;2.65;;
27642;SDS011;15053;48.618;10.024;2022-08-05T16:26:17;8.70;;;3.25;;
27642;SDS011;15053;48.618;10.024;2022-08-05T16:28:51;5.70;;;3.28;;
27642;SDS011;15053;48.618;10.024;2022-08-05T16:31:19;7.78;;;3.15;;